createdAt,value
2018-06-20T00:01:16.718Z,18.50
2018-06-20T00:03:45.519Z,18.62
2018-06-20T00:06:14.144Z,18.49
2018-06-20T00:08:50.762Z,18.43
2018-06-20T00:11:20.428Z,18.45
2018-06-20T00:13:49.080Z,18.54
2018-06-20T00:16:17.727Z,18.62
2018-06-20T00:18:46.427Z,18.66
2018-06-20T00:21:15.185Z,18.74
2018-06-20T00:23:43.883Z,18.71
2018-06-20T00:26:12.568Z,18.74
2018-06-20T00:28:41.355Z,18.75
2018-06-20T00:31:10.104Z,18.71
2018-06-20T00:33:38.822Z,18.81
2018-06-20T00:36:07.466Z,18.85
2018-06-20T00:38:36.062Z,18.87
2018-06-20T00:41:04.716Z,18.92
2018-06-20T00:43:33.374Z,18.84
2018-06-20T00:46:02.058Z,18.83
2018-06-20T00:48:30.698Z,18.74
2018-06-20T00:50:59.338Z,18.68
2018-06-20T00:53:28.020Z,18.58
2018-06-20T00:56:07.960Z,18.53
2018-06-20T00:58:36.604Z,18.58
2018-06-20T01:01:05.411Z,18.53
2018-06-20T01:03:34.060Z,18.50
2018-06-20T01:06:02.710Z,18.43
2018-06-20T01:08:31.496Z,18.50
2018-06-20T01:11:00.157Z,18.55
2018-06-20T01:13:28.754Z,18.51
2018-06-20T01:15:57.499Z,18.48
2018-06-20T01:18:26.265Z,18.39
2018-06-20T01:20:54.955Z,18.33
2018-06-20T01:23:23.747Z,18.33
2018-06-20T01:25:52.415Z,18.30
2018-06-20T01:28:22.146Z,18.29
2018-06-20T01:30:52.317Z,18.24
2018-06-20T01:33:21.856Z,18.19
2018-06-20T01:35:50.677Z,18.19
2018-06-20T01:38:19.349Z,18.12
2018-06-20T01:40:48.010Z,18.13
2018-06-20T01:43:16.691Z,18.08
2018-06-20T01:45:46.214Z,18.20
2018-06-20T01:48:14.886Z,18.08
2018-06-20T01:50:43.538Z,18.17
2018-06-20T01:53:12.209Z,18.20
2018-06-20T01:55:40.861Z,18.19
2018-06-20T01:58:09.539Z,18.07
2018-06-20T02:00:38.192Z,18.13
2018-06-20T02:03:06.917Z,18.17
2018-06-20T02:05:35.563Z,18.17
2018-06-20T02:08:04.235Z,18.14
2018-06-20T02:10:32.878Z,18.09
2018-06-20T02:13:01.517Z,18.10
2018-06-20T02:15:30.171Z,17.96
2018-06-20T02:17:58.821Z,17.80
2018-06-20T02:20:27.481Z,17.74
2018-06-20T02:22:56.132Z,17.73
2018-06-20T02:25:24.747Z,17.57
2018-06-20T02:27:53.394Z,17.57
2018-06-20T02:30:22.086Z,17.56
2018-06-20T02:32:50.755Z,17.48
2018-06-20T02:35:19.480Z,17.34
2018-06-20T02:37:48.116Z,17.34
2018-06-20T02:40:16.742Z,17.28
2018-06-20T02:42:45.421Z,17.19
2018-06-20T02:45:14.082Z,17.10
2018-06-20T02:47:43.923Z,17.03
2018-06-20T02:50:13.947Z,17.03
2018-06-20T02:52:42.877Z,16.91
2018-06-20T02:55:11.659Z,16.85
2018-06-20T02:57:40.483Z,16.80
2018-06-20T03:00:09.157Z,16.81
2018-06-20T03:02:37.794Z,16.76
2018-06-20T03:05:06.499Z,16.72
2018-06-20T03:07:35.174Z,16.72
2018-06-20T03:10:03.893Z,16.68
2018-06-20T03:12:32.547Z,16.64
2018-06-20T03:15:01.260Z,16.63
2018-06-20T03:17:29.907Z,16.61
2018-06-20T03:19:58.560Z,16.64
2018-06-20T03:22:27.231Z,16.61
2018-06-20T03:24:55.954Z,16.63
2018-06-20T03:27:24.731Z,16.65
2018-06-20T03:29:53.433Z,16.70
2018-06-20T03:32:23.142Z,16.74
2018-06-20T03:34:51.793Z,16.73
2018-06-20T03:37:20.480Z,16.78
2018-06-20T03:39:49.159Z,16.82
2018-06-20T03:42:17.795Z,16.89
2018-06-20T03:44:46.495Z,16.89
2018-06-20T03:47:15.137Z,16.87
2018-06-20T03:49:43.874Z,16.98
2018-06-20T03:52:12.542Z,17.00
2018-06-20T03:54:41.209Z,17.03
2018-06-20T03:57:09.849Z,17.07
2018-06-20T03:59:38.477Z,17.13
2018-06-20T04:02:07.082Z,17.18
2018-06-20T04:04:35.702Z,17.18
2018-06-20T04:07:04.358Z,17.21
2018-06-20T04:09:32.990Z,17.26
2018-06-20T04:12:01.686Z,17.32
2018-06-20T04:14:30.415Z,17.32
2018-06-20T04:16:59.125Z,17.41
2018-06-20T04:19:27.782Z,17.41
2018-06-20T04:21:56.426Z,17.53
2018-06-20T04:24:25.108Z,17.61
2018-06-20T04:26:53.803Z,17.63
2018-06-20T04:29:22.521Z,17.71
2018-06-20T04:31:51.168Z,17.79
2018-06-20T04:34:19.859Z,17.86
2018-06-20T04:36:48.503Z,17.90
2018-06-20T04:39:17.182Z,17.98
2018-06-20T04:41:45.819Z,17.99
2018-06-20T04:44:14.541Z,18.04
2018-06-20T04:46:43.187Z,18.12
2018-06-20T04:49:11.831Z,18.19
2018-06-20T04:51:40.462Z,18.29
2018-06-20T04:54:09.154Z,18.35
2018-06-20T04:56:38.955Z,18.43
2018-06-20T04:59:07.646Z,18.56
2018-06-20T05:01:36.287Z,18.65
2018-06-20T05:04:05.011Z,18.71
2018-06-20T05:06:33.623Z,18.77
2018-06-20T05:09:04.347Z,18.83
2018-06-20T05:11:33.024Z,18.92
2018-06-20T05:14:01.655Z,19.04
2018-06-20T05:16:30.291Z,19.18
2018-06-20T05:18:58.983Z,19.30
2018-06-20T05:21:27.662Z,19.43
2018-06-20T05:23:56.471Z,19.44
2018-06-20T05:26:25.126Z,19.55
2018-06-20T05:28:53.801Z,19.65
2018-06-20T05:31:22.535Z,19.73
2018-06-20T05:33:51.143Z,19.81
2018-06-20T05:36:19.817Z,19.77
2018-06-20T05:38:48.591Z,19.69
2018-06-20T05:41:17.321Z,19.85
2018-06-20T05:43:45.964Z,19.87
2018-06-20T05:46:14.601Z,19.97
2018-06-20T05:48:43.244Z,19.97
2018-06-20T05:51:11.919Z,19.92
2018-06-20T05:53:40.920Z,19.97
2018-06-20T05:56:09.560Z,20.03
2018-06-20T05:58:38.194Z,20.10
2018-06-20T06:01:06.875Z,20.24
2018-06-20T06:03:35.542Z,20.39
2018-06-20T06:06:15.560Z,20.43
2018-06-20T06:08:44.791Z,20.46
2018-06-20T06:11:13.434Z,20.50
2018-06-20T06:13:42.055Z,20.60
2018-06-20T06:16:10.838Z,20.70
2018-06-20T06:18:39.518Z,20.74
2018-06-20T06:21:08.146Z,20.90
2018-06-20T06:23:36.811Z,21.09
2018-06-20T06:26:05.495Z,21.13
2018-06-20T06:28:34.142Z,21.33
2018-06-20T06:31:02.805Z,21.27
2018-06-20T06:33:31.469Z,21.29
2018-06-20T06:36:00.115Z,21.33
2018-06-20T06:38:28.878Z,21.36
2018-06-20T06:40:57.541Z,21.43
2018-06-20T06:43:26.200Z,21.60
2018-06-20T06:45:54.863Z,21.73
2018-06-20T06:48:23.546Z,21.83
2018-06-20T06:50:52.666Z,21.94
2018-06-20T06:53:21.305Z,22.09
2018-06-20T06:58:17.744Z,22.40
2018-06-20T07:00:46.407Z,22.34
2018-06-20T07:03:15.055Z,22.45
2018-06-20T07:05:43.665Z,22.40
2018-06-20T07:08:12.366Z,22.27
2018-06-20T07:10:41.353Z,22.49
2018-06-20T07:13:10.009Z,22.59
2018-06-20T07:15:38.682Z,22.58
2018-06-20T07:18:07.350Z,22.51
2018-06-20T07:20:36.001Z,22.57
2018-06-20T07:23:04.711Z,22.61
2018-06-20T07:25:33.975Z,22.62
2018-06-20T07:28:02.620Z,22.60
2018-06-20T07:30:31.310Z,22.75
2018-06-20T07:32:59.982Z,22.83
2018-06-20T07:35:28.711Z,22.90
2018-06-20T07:37:57.401Z,22.91
2018-06-20T07:40:26.028Z,22.77
2018-06-20T07:42:54.674Z,22.77
2018-06-20T07:45:23.347Z,22.73
2018-06-20T07:47:52.010Z,22.87
2018-06-20T07:50:20.683Z,23.03
2018-06-20T07:52:49.334Z,23.14
2018-06-20T07:55:18.088Z,23.32
2018-06-20T07:57:46.740Z,23.48
2018-06-20T08:00:20.575Z,23.52
2018-06-20T08:03:05.619Z,23.47
2018-06-20T08:05:39.416Z,23.34
2018-06-20T08:08:13.564Z,23.41
2018-06-20T08:10:47.272Z,23.54
2018-06-20T08:13:21.183Z,23.60
2018-06-20T08:15:54.893Z,23.71
2018-06-20T08:18:28.747Z,23.78
2018-06-20T08:20:57.484Z,23.82
2018-06-20T08:23:26.295Z,23.88
2018-06-20T08:25:54.943Z,24.01
2018-06-20T08:28:23.611Z,24.20
2018-06-20T08:30:52.279Z,24.22
2018-06-20T08:33:20.970Z,24.35
2018-06-20T08:35:49.657Z,24.39
2018-06-20T08:38:18.352Z,24.35
2018-06-20T08:40:47.201Z,24.56
2018-06-20T08:43:15.826Z,24.65
2018-06-20T08:45:44.571Z,24.70
2018-06-20T08:48:13.182Z,24.75
2018-06-20T08:50:41.881Z,24.94
2018-06-20T08:53:10.591Z,25.14
2018-06-20T08:55:39.198Z,25.36
2018-06-20T08:58:07.892Z,25.25
2018-06-20T09:00:41.820Z,25.34
2018-06-20T09:03:10.570Z,25.40
2018-06-20T09:05:44.311Z,25.44
2018-06-20T09:08:18.170Z,25.57
2018-06-20T09:11:53.358Z,25.84
2018-06-20T09:14:21.983Z,26.19
2018-06-20T09:16:55.653Z,26.33
2018-06-20T09:19:29.384Z,26.31
2018-06-20T09:21:58.023Z,26.36
2018-06-20T09:24:26.945Z,26.43
2018-06-20T09:26:55.640Z,26.40
2018-06-20T09:29:24.280Z,26.48
2018-06-20T09:31:52.918Z,26.56
2018-06-20T09:34:21.537Z,26.64
2018-06-20T09:36:50.145Z,26.67
2018-06-20T09:39:18.918Z,26.89
2018-06-20T09:41:47.568Z,27.14
2018-06-20T09:44:16.236Z,27.30
2018-06-20T09:46:59.432Z,27.32
2018-06-20T09:49:28.019Z,27.49
2018-06-20T09:51:57.236Z,27.39
2018-06-20T09:54:25.938Z,27.57
2018-06-20T09:56:54.591Z,27.63
2018-06-20T09:59:28.502Z,27.74
2018-06-20T10:02:02.311Z,27.83
2018-06-20T10:04:36.145Z,27.77
2018-06-20T10:07:09.931Z,27.68
2018-06-20T10:09:43.848Z,27.74
2018-06-20T10:12:17.495Z,27.61
2018-06-20T10:14:46.199Z,27.16
2018-06-20T10:17:14.831Z,27.21
2018-06-20T10:19:43.444Z,26.99
2018-06-20T10:22:12.070Z,26.98
2018-06-20T10:24:40.724Z,27.07
2018-06-20T10:27:09.378Z,27.07
2018-06-20T10:29:38.124Z,27.11
2018-06-20T10:32:06.734Z,27.31
2018-06-20T10:34:35.360Z,27.49
2018-06-20T10:37:04.108Z,27.69
2018-06-20T10:39:32.790Z,27.63
2018-06-20T10:42:01.453Z,27.48
2018-06-20T10:44:30.099Z,27.36
2018-06-20T10:47:03.899Z,27.42
2018-06-20T10:49:32.628Z,27.71
2018-06-20T10:52:01.294Z,27.93
2018-06-20T10:54:29.974Z,28.13
2018-06-20T10:57:03.788Z,28.12
2018-06-20T10:59:37.617Z,28.09
2018-06-20T11:02:11.428Z,28.28
2018-06-20T11:04:45.483Z,28.72
2018-06-20T11:07:19.324Z,28.88
2018-06-20T11:09:53.207Z,29.04
2018-06-20T11:12:27.069Z,28.95
2018-06-20T11:14:55.755Z,28.66
2018-06-20T11:17:24.431Z,28.36
2018-06-20T11:19:53.232Z,28.15
2018-06-20T11:22:21.934Z,28.63
2018-06-20T11:24:50.603Z,29.26
2018-06-20T11:27:19.274Z,29.96
2018-06-20T11:29:47.922Z,30.45
2018-06-20T11:32:16.891Z,31.29
2018-06-20T11:34:45.522Z,31.67
2018-06-20T11:37:14.257Z,31.87
2018-06-20T11:39:42.919Z,31.81
2018-06-20T11:42:11.588Z,31.85
2018-06-20T11:44:40.254Z,32.30
2018-06-20T11:48:12.573Z,32.32
2018-06-20T11:50:41.264Z,32.21
2018-06-20T11:53:11.270Z,31.94
2018-06-20T11:55:41.123Z,32.28
2018-06-20T11:58:14.967Z,31.76
2018-06-20T12:00:48.893Z,31.74
2018-06-20T12:03:22.859Z,31.85
2018-06-20T12:05:56.683Z,31.49
2018-06-20T12:08:30.442Z,30.82
2018-06-20T12:11:04.082Z,30.79
2018-06-20T12:13:37.972Z,31.13
2018-06-20T12:16:11.831Z,31.46
2018-06-20T12:18:45.739Z,31.76
2018-06-20T12:21:19.533Z,31.92
2018-06-20T12:23:53.399Z,32.50
2018-06-20T12:26:27.142Z,32.72
2018-06-20T12:29:00.813Z,32.81
2018-06-20T12:31:34.641Z,33.01
2018-06-20T12:34:08.502Z,33.46
2018-06-20T12:36:42.403Z,33.83
2018-06-20T12:39:10.129Z,33.95
2018-06-20T12:41:43.921Z,34.08
2018-06-20T12:44:17.773Z,34.55
2018-06-20T12:46:54.259Z,34.69
2018-06-20T12:49:26.943Z,34.53
2018-06-20T12:51:55.622Z,34.99
2018-06-20T12:54:24.287Z,34.86
2018-06-20T12:56:52.941Z,34.55
2018-06-20T12:59:21.661Z,34.67
2018-06-20T13:01:50.362Z,34.53
2018-06-20T13:04:19.576Z,34.46
2018-06-20T13:06:48.235Z,34.36
2018-06-20T13:09:16.920Z,34.60
2018-06-20T13:11:45.557Z,34.51
2018-06-20T13:14:14.192Z,34.71
2018-06-20T13:16:43.480Z,34.71
2018-06-20T13:19:12.109Z,35.00
2018-06-20T13:21:40.823Z,35.41
2018-06-20T13:24:09.444Z,35.22
2018-06-20T13:26:38.092Z,34.88
2018-06-20T13:29:06.838Z,34.79
2018-06-20T13:31:41.019Z,34.94
2018-06-20T13:34:15.319Z,34.89
2018-06-20T13:36:49.258Z,34.54
2018-06-20T13:39:23.143Z,34.14
2018-06-20T13:41:56.810Z,34.40
2018-06-20T13:44:27.103Z,34.49
2018-06-20T13:47:01.032Z,34.72
2018-06-20T13:49:29.735Z,34.63
2018-06-20T13:51:58.446Z,34.71
2018-06-20T13:54:27.438Z,34.57
2018-06-20T13:56:56.083Z,33.84
2018-06-20T13:59:24.991Z,33.40
2018-06-20T14:01:53.734Z,33.97
2018-06-20T14:04:22.425Z,34.35
2018-06-20T14:06:51.794Z,34.73
2018-06-20T14:09:20.453Z,34.24
2018-06-20T14:11:49.102Z,34.20
2018-06-20T14:14:17.712Z,33.89
2018-06-20T14:16:46.447Z,33.50
2018-06-20T14:19:15.139Z,33.61
2018-06-20T14:21:43.774Z,33.81
2018-06-20T14:24:12.673Z,34.00
2018-06-20T14:26:41.912Z,33.65
2018-06-20T14:29:11.227Z,33.70
2018-06-20T14:31:44.970Z,33.57
2018-06-20T14:35:22.531Z,33.73
2018-06-20T14:37:56.368Z,33.49
2018-06-20T14:41:28.705Z,33.49
2018-06-20T14:44:02.550Z,33.57
2018-06-20T14:46:35.230Z,33.52
2018-06-20T14:49:03.994Z,33.83
2018-06-20T14:51:32.743Z,33.88
2018-06-20T14:54:01.443Z,34.04
2018-06-20T14:56:30.927Z,33.85
2018-06-20T14:58:59.618Z,33.89
2018-06-20T15:01:28.306Z,33.98
2018-06-20T15:03:57.131Z,34.22
2018-06-20T15:06:25.890Z,34.19
2018-06-20T15:08:54.555Z,34.28
2018-06-20T15:11:23.162Z,34.10
2018-06-20T15:13:51.881Z,34.48
2018-06-20T15:16:25.698Z,34.30
2018-06-20T15:18:54.367Z,34.08
2018-06-20T15:21:22.998Z,33.55
2018-06-20T15:23:51.647Z,33.34
2018-06-20T15:26:25.278Z,33.01
2018-06-20T15:28:59.256Z,32.78
2018-06-20T15:31:33.135Z,32.87
2018-06-20T15:34:07.054Z,33.02
2018-06-20T15:36:40.792Z,33.08
2018-06-20T15:39:09.682Z,33.07
2018-06-20T15:41:38.394Z,32.92
2018-06-20T15:44:07.405Z,32.77
2018-06-20T15:46:36.078Z,32.79
2018-06-20T15:49:05.254Z,32.74
2018-06-20T15:51:38.116Z,32.90
2018-06-20T15:54:06.747Z,33.04
2018-06-20T15:56:35.441Z,33.31
2018-06-20T15:59:04.117Z,33.32
2018-06-20T16:01:32.835Z,33.24
2018-06-20T16:04:01.528Z,32.90
2018-06-20T16:06:30.172Z,32.82
2018-06-20T16:09:04.077Z,32.71
2018-06-20T16:11:32.716Z,32.67
2018-06-20T16:14:01.402Z,32.30
2018-06-20T16:16:30.088Z,32.38
2018-06-20T16:19:03.962Z,32.20
2018-06-20T16:21:37.714Z,32.52
2018-06-20T16:24:11.543Z,32.47
2018-06-20T16:26:45.355Z,32.23
2018-06-20T16:29:19.537Z,31.99
2018-06-20T16:31:48.337Z,31.89
2018-06-20T16:34:17.161Z,31.69
2018-06-20T16:36:45.796Z,31.68
2018-06-20T16:39:14.468Z,31.46
2018-06-20T16:41:43.131Z,31.37
2018-06-20T16:44:11.801Z,31.49
2018-06-20T16:46:40.438Z,31.25
2018-06-20T16:49:09.344Z,30.87
2018-06-20T16:51:38.071Z,30.76
2018-06-20T16:54:06.873Z,31.08
2018-06-20T16:56:35.535Z,30.78
2018-06-20T16:59:04.212Z,30.99
2018-06-20T17:01:38.054Z,31.06
2018-06-20T17:04:06.754Z,31.03
2018-06-20T17:06:35.640Z,30.59
2018-06-20T17:09:06.339Z,30.69
2018-06-20T17:11:34.994Z,30.47
2018-06-20T17:14:08.937Z,30.35
2018-06-20T17:16:42.825Z,30.25
2018-06-20T17:19:16.771Z,29.95
2018-06-20T17:21:50.632Z,29.86
2018-06-20T17:24:24.538Z,29.71
2018-06-20T17:26:53.642Z,29.64
2018-06-20T17:29:22.394Z,29.44
2018-06-20T17:31:51.968Z,29.24
2018-06-20T17:34:20.670Z,28.95
2018-06-20T17:36:49.367Z,28.87
2018-06-20T17:39:18.121Z,28.67
2018-06-20T17:41:47.706Z,28.55
2018-06-20T17:44:16.460Z,28.52
2018-06-20T17:46:45.108Z,28.37
2018-06-20T17:49:14.520Z,28.19
2018-06-20T17:51:43.290Z,28.00
2018-06-20T17:54:11.987Z,27.83
2018-06-20T17:56:40.653Z,27.70
2018-06-20T17:59:10.557Z,27.51
2018-06-20T18:01:39.270Z,27.35
2018-06-20T18:04:07.928Z,27.19
2018-06-20T18:06:42.575Z,27.06
2018-06-20T18:09:16.381Z,26.91
2018-06-20T18:11:50.201Z,26.75
2018-06-20T18:14:23.979Z,26.64
2018-06-20T18:16:58.924Z,26.70
2018-06-20T18:19:28.142Z,26.55
2018-06-20T18:21:56.892Z,26.44
2018-06-20T18:24:26.190Z,26.42
2018-06-20T18:26:55.098Z,26.33
2018-06-20T18:29:23.736Z,26.30
2018-06-20T18:31:52.471Z,26.22
2018-06-20T18:34:21.140Z,26.11
2018-06-20T18:36:49.866Z,25.99
2018-06-20T18:39:18.550Z,25.91
2018-06-20T18:41:47.188Z,25.91
2018-06-20T18:44:15.852Z,25.83
2018-06-20T18:46:44.680Z,25.84
2018-06-20T18:49:13.315Z,25.83
2018-06-20T18:51:41.979Z,25.81
2018-06-20T18:54:11.811Z,25.76
2018-06-20T18:56:40.604Z,25.73
2018-06-20T18:59:14.606Z,25.70
2018-06-20T19:02:49.099Z,25.60
2018-06-20T19:05:22.880Z,25.49
2018-06-20T19:07:56.693Z,25.58
2018-06-20T19:10:25.391Z,25.52
2018-06-20T19:12:54.070Z,25.38
2018-06-20T19:15:23.170Z,25.17
2018-06-20T19:17:52.038Z,25.07
2018-06-20T19:20:20.680Z,25.05
2018-06-20T19:22:49.406Z,24.96
2018-06-20T19:25:18.080Z,24.83
2018-06-20T19:27:46.820Z,24.74
2018-06-20T19:30:16.853Z,24.62
2018-06-20T19:32:45.542Z,24.69
2018-06-20T19:35:15.121Z,24.63
2018-06-20T19:37:43.867Z,24.40
2018-06-20T19:40:12.577Z,24.13
2018-06-20T19:42:41.319Z,24.08
2018-06-20T19:45:10.044Z,24.01
2018-06-20T19:47:38.813Z,24.06
2018-06-20T19:50:07.473Z,23.94
2018-06-20T19:52:36.577Z,23.84
2018-06-20T19:55:05.288Z,23.85
2018-06-20T19:57:34.705Z,23.87
2018-06-20T20:00:05.608Z,23.69
2018-06-20T20:02:34.734Z,23.80
2018-06-20T20:05:03.476Z,23.80
2018-06-20T20:07:32.131Z,23.75
2018-06-20T20:10:00.828Z,23.73
2018-06-20T20:12:29.457Z,23.73
